TimeCDT,TemperatureF,Dew PointF,Humidity,Sea Level PressureIn,VisibilityMPH,Wind Direction,Wind SpeedMPH,Gust SpeedMPH,PrecipitationIn,Events,Conditions,WindDirDegrees,DateUTC
12:58 AM,53.4,50.0,88,30.20,10.0,SE,4.6,-,N/A,,Clear,130,2013-05-14 05:58:00
1:58 AM,53.6,50.4,89,30.19,10.0,ESE,1.2,-,N/A,,Clear,110,2013-05-14 06:58:00
2:58 AM,52.3,49.5,90,30.19,10.0,SE,2.3,-,N/A,,Clear,140,2013-05-14 07:58:00
3:58 AM,51.1,49.6,95,30.18,10.0,SE,3.5,-,N/A,,Clear,130,2013-05-14 08:58:00
4:58 AM,51.6,49.8,94,30.19,10.0,SE,2.3,-,N/A,,Clear,140,2013-05-14 09:58:00
5:58 AM,51.6,50.0,94,30.20,10.0,SE,4.6,-,N/A,,Clear,130,2013-05-14 10:58:00
6:58 AM,54.9,52.0,90,30.22,10.0,ESE,1.2,-,N/A,,Clear,120,2013-05-14 11:58:00
7:58 AM,62.6,53.4,72,30.23,10.0,Calm,Calm,-,N/A,,Clear,0,2013-05-14 12:58:00
8:58 AM,69.4,54.0,58,30.23,10.0,WSW,10.4,-,N/A,,Clear,250,2013-05-14 13:58:00
9:58 AM,73.8,54.9,52,30.23,10.0,West,10.4,-,N/A,,Clear,260,2013-05-14 14:58:00
10:58 AM,78.3,54.1,43,30.23,10.0,SW,8.1,-,N/A,,Clear,220,2013-05-14 15:58:00
11:58 AM,80.4,55.2,42,30.22,10.0,SW,10.4,16.1,N/A,,Clear,230,2013-05-14 16:58:00
12:58 PM,81.7,54.3,39,30.19,10.0,WSW,9.2,17.3,N/A,,Clear,250,2013-05-14 17:58:00
1:58 PM,83.5,55.8,39,30.17,10.0,SSW,9.2,-,N/A,,Clear,200,2013-05-14 18:58:00
2:58 PM,84.4,54.1,35,30.15,10.0,WSW,8.1,-,N/A,,Clear,240,2013-05-14 19:58:00
3:58 PM,85.5,52.3,32,30.13,10.0,WSW,12.7,-,N/A,,Clear,250,2013-05-14 20:58:00
4:58 PM,85.5,52.7,32,30.12,10.0,WSW,12.7,-,N/A,,Clear,240,2013-05-14 21:58:00
5:58 PM,84.7,51.1,31,30.11,10.0,WSW,8.1,-,N/A,,Clear,250,2013-05-14 22:58:00
6:58 PM,81.1,54.5,40,30.10,10.0,Calm,Calm,-,N/A,,Clear,0,2013-05-14 23:58:00
7:58 PM,73.4,56.7,56,30.11,10.0,Calm,Calm,-,N/A,,Clear,0,2013-05-15 00:58:00
8:58 PM,66.2,57.0,72,30.12,10.0,Calm,Calm,-,N/A,,Clear,0,2013-05-15 01:58:00
9:58 PM,65.5,56.5,73,30.13,10.0,Calm,Calm,-,N/A,,Clear,0,2013-05-15 02:58:00
10:58 PM,62.2,55.9,80,30.13,10.0,Calm,Calm,-,N/A,,Clear,0,2013-05-15 03:58:00
11:58 PM,61.0,55.6,82,30.13,10.0,Calm,Calm,-,N/A,,Clear,0,2013-05-15 04:58:00